Time;durP1;ratioP1;P1;durP2;ratioP2;P2;SDS_P1;SDS_P2;PMS_P1;PMS_P2;Temp;Humidity;BMP_temperature;BMP_pressure;BME280_temperature;BME280_humidity;BME280_pressure;Samples;Min_cycle;Max_cycle;Signal;HPM_P1;HPM_P2
2021/09/18 00:01:38;;;;;;;0.80;0.80;;;;;;;13.67;100.00;-17183.53;6277025;22;20383;-73
2021/09/18 00:04:05;;;;;;;0.90;0.90;;;;;;;13.61;100.00;-17293.22;6249723;22;20410;-72
2021/09/18 00:06:33;;;;;;;0.70;0.70;;;;;;;13.56;100.00;-17418.00;6277410;22;20397;-73
2021/09/18 00:09:03;;;;;;;0.70;0.60;;;;;;;13.50;100.00;-17595.66;6277241;22;20410;-72
2021/09/18 00:11:31;;;;;;;0.70;0.70;;;;;;;13.50;100.00;-17807.31;6277599;22;20426;-71
2021/09/18 00:13:59;;;;;;;0.70;0.70;;;;;;;13.49;100.00;-17975.84;6250611;22;20883;-72
2021/09/18 00:16:26;;;;;;;0.80;0.70;;;;;;;13.51;100.00;-18172.72;6277272;22;20386;-72
2021/09/18 00:18:54;;;;;;;0.83;0.83;;;;;;;13.61;100.00;-18421.72;6224648;22;20408;-73
2021/09/18 00:21:22;;;;;;;0.70;0.70;;;;;;;13.52;100.00;-18621.22;6277171;22;20377;-72
2021/09/18 00:23:50;;;;;;;0.70;0.70;;;;;;;13.52;100.00;-18709.34;6249554;22;20426;-72
2021/09/18 00:26:17;;;;;;;0.80;0.80;;;;;;;13.46;100.00;-18811.13;6277521;22;20406;-72
2021/09/18 00:28:44;;;;;;;0.70;0.63;;;;;;;13.51;100.00;-18892.78;6277189;22;20371;-72
2021/09/18 00:31:15;;;;;;;0.70;0.60;;;;;;;13.52;100.00;-19059.31;6277683;22;20492;-72
2021/09/18 00:33:46;;;;;;;0.70;0.70;;;;;;;13.53;100.00;-19235.78;6277111;22;20398;-72
2021/09/18 00:36:25;;;;;;;1.33;1.23;;;;;;;13.46;100.00;-19483.28;6276605;22;20425;-72
2021/09/18 00:38:58;;;;;;;0.73;0.73;;;;;;;13.40;100.00;-19544.69;6251435;22;20733;-71
2021/09/18 00:41:37;;;;;;;0.70;0.70;;;;;;;13.37;100.00;-19672.28;6278382;22;20365;-72
2021/09/18 00:44:07;;;;;;;0.70;0.60;;;;;;;13.37;100.00;-19664.63;6250846;22;20379;-72
2021/09/18 00:46:38;;;;;;;0.70;0.60;;;;;;;13.36;100.00;-19790.31;6278078;22;20404;-72
2021/09/18 00:49:12;;;;;;;0.70;0.60;;;;;;;13.28;100.00;-19838.72;6277414;22;20397;-72
2021/09/18 00:51:49;;;;;;;0.70;0.70;;;;;;;13.24;100.00;-19882.84;6250599;22;20432;-72
2021/09/18 00:54:29;;;;;;;0.70;0.60;;;;;;;13.24;100.00;-19882.84;6226585;22;20438;-72
2021/09/18 00:57:02;;;;;;;0.80;0.80;;;;;;;13.24;100.00;-19817.44;6250141;22;20371;-73
2021/09/18 00:59:34;;;;;;;0.80;0.80;;;;;;;13.25;100.00;-19837.97;6278527;22;20367;-72
2021/09/18 01:02:04;;;;;;;0.70;0.70;;;;;;;13.24;100.00;-19865.25;6251065;22;20743;-72
2021/09/18 01:04:37;;;;;;;0.87;0.83;;;;;;;13.24;100.00;-19867.75;6277042;22;20370;-72
2021/09/18 01:07:12;;;;;;;0.80;0.80;;;;;;;13.17;100.00;-19961.56;6277190;22;20388;-72
2021/09/18 01:09:46;;;;;;;0.70;0.70;;;;;;;13.16;100.00;-19921.06;6251584;22;20421;-73
2021/09/18 01:12:19;;;;;;;0.70;0.60;;;;;;;13.23;100.00;-19938.09;6251404;22;20591;-72
2021/09/18 01:14:52;;;;;;;0.70;0.70;;;;;;;13.39;100.00;-19962.22;6249156;22;20504;-72
2021/09/18 01:17:23;;;;;;;1.07;1.00;;;;;;;13.42;100.00;-19995.69;6249778;22;20418;-72
2021/09/18 01:19:59;;;;;;;0.73;0.70;;;;;;;13.38;100.00;-20004.59;6252284;22;20395;-72
2021/09/18 01:22:33;;;;;;;0.70;0.70;;;;;;;13.31;100.00;-19975.25;6251819;22;20369;-72
2021/09/18 01:25:09;;;;;;;0.80;0.80;;;;;;;13.23;100.00;-19958.06;6277014;22;20406;-72
2021/09/18 01:27:49;;;;;;;0.93;0.93;;;;;;;13.21;100.00;-19937.44;6249771;22;20431;-73
2021/09/18 01:30:38;;;;;;;0.70;0.70;;;;;;;13.19;100.00;-19947.09;6249697;22;20440;-72
2021/09/18 01:33:10;;;;;;;1.53;1.37;;;;;;;13.12;100.00;-19917.63;6250573;22;20382;-72
2021/09/18 01:35:44;;;;;;;0.70;0.70;;;;;;;13.11;100.00;-19937.38;6251251;22;20462;-72
2021/09/18 01:38:18;;;;;;;0.70;0.70;;;;;;;13.13;100.00;-19930.34;6249779;22;20435;-71
2021/09/18 01:40:53;;;;;;;0.70;0.60;;;;;;;13.14;100.00;-19880.28;6249842;22;20412;-72
2021/09/18 01:43:29;;;;;;;0.70;0.63;;;;;;;13.12;100.00;-19849.59;6277181;22;20466;-71
2021/09/18 01:46:00;;;;;;;0.70;0.70;;;;;;;13.14;100.00;-19867.84;6250250;22;20368;-72
2021/09/18 01:48:31;;;;;;;0.80;0.80;;;;;;;13.16;100.00;-19891.00;6249037;22;20500;-71
2021/09/18 01:51:13;;;;;;;0.70;0.60;;;;;;;13.16;100.00;-20006.72;6276902;22;20413;-72
2021/09/18 01:53:47;;;;;;;0.80;0.80;;;;;;;13.11;100.00;-20060.63;6250013;22;20491;-71
2021/09/18 01:56:20;;;;;;;0.70;0.70;;;;;;;13.14;100.00;-20043.78;6249355;22;20370;-71
2021/09/18 01:58:50;;;;;;;0.70;0.70;;;;;;;13.13;100.00;-20081.25;6250806;22;20413;-71
2021/09/18 02:01:29;;;;;;;1.17;1.10;;;;;;;13.06;100.00;-20114.78;6251790;22;20424;-71
2021/09/18 02:04:05;;;;;;;0.70;0.70;;;;;;;13.06;100.00;-20140.06;6251746;22;20410;-71
2021/09/18 02:06:37;;;;;;;0.70;0.60;;;;;;;12.98;100.00;-20143.00;6248897;22;20427;-71
2021/09/18 02:09:08;;;;;;;0.70;0.60;;;;;;;13.03;100.00;-20171.97;6276687;22;20441;-71
2021/09/18 02:11:44;;;;;;;0.70;0.70;;;;;;;13.06;100.00;-20235.50;6249248;22;20443;-71
2021/09/18 02:14:15;;;;;;;0.70;0.60;;;;;;;13.10;100.00;-20216.28;6250713;22;20370;-72
2021/09/18 02:16:50;;;;;;;0.80;0.80;;;;;;;13.13;100.00;-20272.41;6277759;22;20369;-71
2021/09/18 02:19:24;;;;;;;0.70;0.60;;;;;;;13.21;100.00;-20327.34;6277085;22;20433;-71
2021/09/18 02:21:55;;;;;;;0.70;0.60;;;;;;;13.22;100.00;-20460.94;6249928;22;20863;-71
2021/09/18 02:24:25;;;;;;;0.70;0.70;;;;;;;13.31;100.00;-20508.63;6250206;22;20461;-71
2021/09/18 02:26:55;;;;;;;0.70;0.70;;;;;;;13.31;100.00;-20543.69;6226385;22;20416;-71
2021/09/18 02:29:25;;;;;;;0.70;0.60;;;;;;;13.28;100.00;-20563.16;6252058;22;20430;-72
2021/09/18 02:31:56;;;;;;;0.70;0.60;;;;;;;13.21;100.00;-20561.28;6252514;22;20504;-71
2021/09/18 02:34:26;;;;;;;0.70;0.70;;;;;;;13.11;100.00;-20578.72;6251166;22;20742;-71
2021/09/18 02:36:57;;;;;;;0.70;0.60;;;;;;;12.99;100.00;-20560.53;6278280;22;20704;-71
2021/09/18 02:39:50;;;;;;;0.70;0.67;;;;;;;12.95;100.00;-20733.09;6256000;22;20382;-71
2021/09/18 02:42:22;;;;;;;0.70;0.70;;;;;;;12.88;100.00;-20698.38;6250411;22;20934;-71
2021/09/18 02:44:52;;;;;;;0.70;0.70;;;;;;;12.78;100.00;-20675.69;6251409;22;20414;-71
2021/09/18 02:47:24;;;;;;;0.80;0.80;;;;;;;12.75;100.00;-20639.84;6277523;22;20381;-71
2021/09/18 02:49:55;;;;;;;0.80;0.80;;;;;;;12.67;100.00;-20612.53;6251363;22;20424;-71
2021/09/18 02:52:31;;;;;;;0.70;0.60;;;;;;;12.68;100.00;-20562.41;6250866;22;20974;-71
2021/09/18 02:55:13;;;;;;;0.70;0.60;;;;;;;12.61;100.00;-20595.72;6227238;22;20443;-71
2021/09/18 02:57:48;;;;;;;0.80;0.77;;;;;;;12.58;100.00;-20570.06;6278069;22;20460;-71
2021/09/18 03:00:19;;;;;;;0.70;0.67;;;;;;;12.55;100.00;-20574.28;6278377;22;20892;-71
2021/09/18 03:02:54;;;;;;;0.70;0.60;;;;;;;12.61;100.00;-20605.78;6252409;22;20363;-72
2021/09/18 03:05:26;;;;;;;0.80;0.80;;;;;;;12.65;100.00;-20722.44;6250950;22;20871;-71
2021/09/18 03:07:59;;;;;;;0.90;0.90;;;;;;;12.71;100.00;-20834.66;6251051;22;20435;-71
2021/09/18 03:10:30;;;;;;;0.70;0.67;;;;;;;12.65;100.00;-20915.94;6250468;22;20373;-71
2021/09/18 03:13:05;;;;;;;0.70;0.60;;;;;;;12.58;100.00;-20951.97;6278353;22;20399;-71
2021/09/18 03:15:59;;;;;;;0.70;0.70;;;;;;;12.55;100.00;-20991.34;6246868;22;20768;-71
2021/09/18 03:18:32;;;;;;;0.70;0.70;;;;;;;12.52;100.00;-20955.34;6251165;22;20897;-71
2021/09/18 03:21:05;;;;;;;0.70;0.70;;;;;;;12.51;100.00;-20965.13;6280390;22;20888;-71
2021/09/18 03:23:44;;;;;;;0.80;0.80;;;;;;;12.47;100.00;-20966.53;6250440;22;20938;-71
2021/09/18 03:26:13;;;;;;;0.70;0.60;;;;;;;12.60;100.00;-20982.53;6250201;22;20414;-71
2021/09/18 03:29:04;;;;;;;0.70;0.60;;;;;;;12.63;100.00;-21025.31;6250699;22;20447;-71
2021/09/18 03:31:36;;;;;;;0.70;0.70;;;;;;;12.62;100.00;-21025.03;6251708;22;20479;-71
2021/09/18 03:34:10;;;;;;;0.70;0.70;;;;;;;12.67;100.00;-21026.53;6250362;22;20464;-71
2021/09/18 03:37:03;;;;;;;0.70;0.70;;;;;;;12.69;100.00;-21026.97;6277316;22;20457;-71
2021/09/18 03:39:36;;;;;;;2.03;1.93;;;;;;;12.63;100.00;-21025.31;6250768;22;20492;-71
2021/09/18 03:42:06;;;;;;;1.03;0.93;;;;;;;12.49;100.00;-21021.59;6224632;22;20428;-71
2021/09/18 03:44:37;;;;;;;0.70;0.60;;;;;;;12.44;100.00;-21020.34;6277955;22;20396;-71
2021/09/18 03:47:08;;;;;;;0.70;0.60;;;;;;;12.41;100.00;-21019.50;6225683;22;20883;-71
2021/09/18 03:49:46;;;;;;;0.80;0.80;;;;;;;12.41;100.00;-21019.50;6278305;22;20423;-71
2021/09/18 03:52:16;;;;;;;0.70;0.60;;;;;;;12.40;100.00;-21019.09;6226201;22;20460;-71
2021/09/18 03:55:08;;;;;;;0.90;0.80;;;;;;;12.43;100.00;-21019.91;6277621;22;20379;-71
2021/09/18 03:57:38;;;;;;;0.70;0.60;;;;;;;12.40;100.00;-21019.22;6250562;22;20421;-72
2021/09/18 04:00:13;;;;;;;0.70;0.60;;;;;;;12.47;100.00;-21021.16;6278463;22;20369;-72
2021/09/18 04:02:44;;;;;;;0.70;0.70;;;;;;;12.49;100.00;-21021.72;6278373;22;20399;-71
2021/09/18 04:05:16;;;;;;;0.80;0.77;;;;;;;12.48;100.00;-21021.44;6278250;22;20444;-71
2021/09/18 04:07:47;;;;;;;0.70;0.70;;;;;;;12.43;100.00;-21020.06;6250381;22;20743;-71
2021/09/18 04:10:41;;;;;;;0.70;0.60;;;;;;;12.40;100.00;-21019.22;6255871;22;20373;-71
2021/09/18 04:13:14;;;;;;;0.70;0.70;;;;;;;12.38;100.00;-21018.53;6250165;22;20412;-71
2021/09/18 04:15:52;;;;;;;0.70;0.60;;;;;;;12.35;100.00;-21017.84;6276990;22;20372;-71
2021/09/18 04:18:23;;;;;;;0.70;0.60;;;;;;;12.34;100.00;-21017.56;6249503;22;20415;-71
2021/09/18 04:20:53;;;;;;;0.80;0.70;;;;;;;12.30;100.00;-21016.47;6250472;22;20421;-71
2021/09/18 04:23:44;;;;;;;0.70;0.60;;;;;;;12.26;100.00;-21015.38;6277019;22;20918;-71
2021/09/18 04:26:18;;;;;;;0.70;0.60;;;;;;;12.21;100.00;-21014.00;6249208;22;20465;-72
2021/09/18 04:28:49;;;;;;;0.70;0.60;;;;;;;12.25;100.00;-21015.09;6251250;22;20421;-72
2021/09/18 04:31:21;;;;;;;0.70;0.60;;;;;;;12.30;100.00;-21016.47;6251006;22;20794;-72
2021/09/18 04:33:57;;;;;;;0.70;0.60;;;;;;;12.35;100.00;-21017.84;6249209;22;20431;-71
2021/09/18 04:36:27;;;;;;;0.70;0.67;;;;;;;12.37;100.00;-21018.41;6250243;22;20448;-71
2021/09/18 04:38:58;;;;;;;0.90;0.90;;;;;;;12.32;100.00;-21017.16;6277341;22;20405;-72
2021/09/18 04:41:27;;;;;;;0.70;0.50;;;;;;;12.26;100.00;-21015.38;6276024;22;20888;-72
2021/09/18 04:44:00;;;;;;;0.70;0.60;;;;;;;12.21;100.00;-21014.13;6225165;22;21123;-72
2021/09/18 04:46:33;;;;;;;0.70;0.60;;;;;;;12.23;100.00;-21014.53;6250360;22;20411;-71
2021/09/18 04:49:03;;;;;;;0.70;0.60;;;;;;;12.28;100.00;-21015.91;6251010;22;20431;-71
2021/09/18 04:51:57;;;;;;;0.70;0.60;;;;;;;12.23;100.00;-21014.69;6276991;22;20498;-71
2021/09/18 04:54:27;;;;;;;0.70;0.60;;;;;;;12.22;100.00;-21014.41;6251421;22;20406;-71
2021/09/18 04:56:57;;;;;;;0.70;0.60;;;;;;;12.30;100.00;-21016.47;6249469;22;20862;-72
2021/09/18 04:59:33;;;;;;;0.70;0.60;;;;;;;12.32;100.00;-21017.03;6250861;22;20767;-71
2021/09/18 05:02:06;;;;;;;0.70;0.70;;;;;;;12.29;100.00;-21016.34;6249756;22;20456;-73
2021/09/18 05:04:42;;;;;;;0.70;0.67;;;;;;;12.25;100.00;-21015.22;6276898;22;20371;-72
2021/09/18 05:07:12;;;;;;;0.70;0.70;;;;;;;12.19;100.00;-21013.44;6276540;22;20425;-72
2021/09/18 05:09:42;;;;;;;1.30;1.20;;;;;;;12.16;100.00;-21012.59;6276854;22;20365;-73
2021/09/18 05:12:11;;;;;;;0.70;0.70;;;;;;;12.09;100.00;-21010.94;6276392;22;20465;-72
2021/09/18 05:14:42;;;;;;;0.70;0.60;;;;;;;12.07;100.00;-21010.41;6250903;22;20455;-72
2021/09/18 05:17:17;;;;;;;0.70;0.70;;;;;;;12.09;100.00;-21010.81;6250866;22;21007;-72
2021/09/18 05:19:46;;;;;;;0.70;0.70;;;;;;;12.06;100.00;-21009.97;6250595;22;20882;-72
2021/09/18 05:22:15;;;;;;;0.70;0.60;;;;;;;11.98;100.00;-21007.91;6250269;22;20385;-71
2021/09/18 05:24:42;;;;;;;0.70;0.70;;;;;;;11.96;100.00;-21007.34;6249675;22;20441;-71
2021/09/18 05:27:09;;;;;;;0.70;0.60;;;;;;;12.04;100.00;-21009.56;6250750;22;20376;-72
2021/09/18 05:29:37;;;;;;;0.70;0.60;;;;;;;12.16;100.00;-21012.59;6273341;22;20712;-72
2021/09/18 05:32:04;;;;;;;0.70;0.67;;;;;;;12.24;100.00;-21014.94;6275453;22;20412;-73
2021/09/18 05:34:33;;;;;;;0.70;0.60;;;;;;;12.27;100.00;-21015.66;6249394;22;20377;-73
2021/09/18 05:37:00;;;;;;;0.70;0.60;;;;;;;12.39;100.00;-21018.97;6249655;22;20843;-71
2021/09/18 05:39:27;;;;;;;0.70;0.70;;;;;;;12.41;100.00;-21019.50;6276863;22;20433;-72
2021/09/18 05:41:54;;;;;;;0.80;0.80;;;;;;;12.46;100.00;-21020.75;6276614;22;20385;-71
2021/09/18 05:44:21;;;;;;;0.70;0.70;;;;;;;12.51;100.00;-21022.13;6275567;22;20425;-71
2021/09/18 05:46:48;;;;;;;1.37;1.27;;;;;;;12.58;100.00;-21024.19;6249762;22;20388;-72
2021/09/18 05:49:15;;;;;;;0.70;0.60;;;;;;;12.66;100.00;-21026.13;6275744;22;20425;-72
2021/09/18 05:51:43;;;;;;;0.70;0.70;;;;;;;12.83;100.00;-21030.81;6249344;22;20422;-71
2021/09/18 05:54:10;;;;;;;0.70;0.63;;;;;;;12.97;100.00;-21034.69;6224491;22;20483;-72
2021/09/18 05:56:38;;;;;;;0.70;0.60;;;;;;;13.12;100.00;-21038.69;6248172;22;20871;-71
2021/09/18 05:59:06;;;;;;;0.70;0.60;;;;;;;13.16;100.00;-21039.66;6276698;22;20358;-72
2021/09/18 06:01:37;;;;;;;0.70;0.60;;;;;;;13.27;100.00;-21042.69;6249942;22;20381;-72
2021/09/18 06:04:05;;;;;;;0.70;0.70;;;;;;;13.40;100.00;-21046.13;6276726;22;20372;-72
2021/09/18 06:06:32;;;;;;;0.70;0.60;;;;;;;13.47;100.00;-21048.19;6275296;22;20388;-72
2021/09/18 06:09:01;;;;;;;0.70;0.60;;;;;;;13.59;100.00;-21051.38;6276055;22;20401;-72
2021/09/18 06:11:27;;;;;;;0.70;0.60;;;;;;;13.63;100.00;-21052.34;6276194;22;20396;-71
2021/09/18 06:13:54;;;;;;;0.70;0.60;;;;;;;13.66;100.00;-21053.31;6224926;22;20400;-72
2021/09/18 06:16:23;;;;;;;0.70;0.63;;;;;;;13.67;100.00;-21053.44;6277370;22;20375;-72
2021/09/18 06:18:51;;;;;;;0.73;0.70;;;;;;;13.77;100.00;-21056.19;6249144;22;20393;-73
2021/09/18 06:21:18;;;;;;;0.70;0.60;;;;;;;13.81;100.00;-21057.28;6275883;22;20395;-71
2021/09/18 06:23:46;;;;;;;0.70;0.60;;;;;;;13.91;100.00;-21060.03;6276583;22;20478;-72
2021/09/18 06:26:16;;;;;;;0.70;0.70;;;;;;;14.13;100.00;-21065.97;6224211;22;20415;-73
2021/09/18 06:28:43;;;;;;;0.80;0.80;;;;;;;14.25;100.00;-21069.16;6275884;22;20384;-72
2021/09/18 06:31:10;;;;;;;0.70;0.70;;;;;;;14.37;100.00;-21072.44;6249611;22;20785;-71
2021/09/18 06:33:40;;;;;;;0.70;0.60;;;;;;;14.45;100.00;-21074.66;6250530;22;20446;-71
2021/09/18 06:36:07;;;;;;;0.70;0.70;;;;;;;14.54;100.00;-21077.00;6248662;22;20434;-72
2021/09/18 06:38:35;;;;;;;0.70;0.70;;;;;;;14.53;100.00;-21076.56;6249436;22;20420;-71
2021/09/18 06:41:02;;;;;;;0.77;0.70;;;;;;;14.67;100.00;-21080.44;6276554;22;20447;-72
2021/09/18 06:43:33;;;;;;;1.20;1.10;;;;;;;14.62;100.00;-21079.19;6248942;22;20454;-71
2021/09/18 06:46:00;;;;;;;0.80;0.80;;;;;;;14.66;100.00;-20962.44;6248777;22;20399;-73
2021/09/18 06:48:27;;;;;;;0.70;0.70;;;;;;;14.72;100.00;-20721.91;6276540;22;20398;-72
2021/09/18 06:50:54;;;;;;;0.90;0.90;;;;;;;14.77;100.00;-20456.00;6275517;22;20370;-72
2021/09/18 06:53:21;;;;;;;0.70;0.70;;;;;;;14.81;100.00;-20179.63;6250192;22;20463;-72
2021/09/18 06:55:48;;;;;;;0.70;0.60;;;;;;;14.80;100.00;-19929.69;6278317;22;20717;-71
2021/09/18 06:58:15;;;;;;;0.70;0.60;;;;;;;14.90;100.00;-19556.25;6278598;22;20836;-72
2021/09/18 07:00:46;;;;;;;1.17;1.07;;;;;;;14.96;100.00;-19161.72;6252129;22;20408;-71
2021/09/18 07:03:13;;;;;;;0.70;0.60;;;;;;;15.01;100.00;-18756.38;6250801;22;20460;-72
2021/09/18 07:05:41;;;;;;;1.20;1.10;;;;;;;15.02;100.00;-18357.78;6276752;22;20372;-72
2021/09/18 07:08:08;;;;;;;0.67;0.60;;;;;;;15.15;100.00;-17775.09;6278062;22;20414;-71
2021/09/18 07:10:35;;;;;;;0.70;0.60;;;;;;;15.29;100.00;-17199.59;6278245;22;20369;-72
2021/09/18 07:13:02;;;;;;;2.10;2.00;;;;;;;15.29;100.00;-16701.78;6277415;22;20429;-71
2021/09/18 07:15:29;;;;;;;0.90;0.90;;;;;;;15.29;100.00;-16181.25;6278024;22;20726;-72
2021/09/18 07:17:57;;;;;;;0.70;0.67;;;;;;;15.34;100.00;-15580.78;6250636;22;20409;-72
2021/09/18 07:20:24;;;;;;;0.80;0.70;;;;;;;15.45;100.00;-14895.00;6276962;22;20398;-72
2021/09/18 07:22:51;;;;;;;0.87;0.83;;;;;;;15.63;100.00;-14154.28;6250657;22;20418;-71
2021/09/18 07:25:23;;;;;;;0.70;0.60;;;;;;;15.63;100.00;-13369.97;6276978;22;20710;-71
2021/09/18 07:27:53;;;;;;;1.90;1.80;;;;;;;15.54;100.00;-12801.81;6277939;22;20872;-71
2021/09/18 07:30:20;;;;;;;0.70;0.60;;;;;;;15.79;100.00;-11501.06;6225272;22;20388;-72
2021/09/18 07:32:47;;;;;;;0.70;0.70;;;;;;;15.92;100.00;-10347.28;6250384;22;20438;-72
2021/09/18 07:35:17;;;;;;;1.30;1.20;;;;;;;16.13;100.00;-9030.81;6277418;22;20363;-71
2021/09/18 07:37:44;;;;;;;0.87;0.87;;;;;;;16.22;100.00;-7872.19;6225011;22;20425;-72
2021/09/18 07:40:12;;;;;;;0.80;0.80;;;;;;;16.43;100.00;-6370.47;6250644;22;20392;-72
2021/09/18 07:42:41;;;;;;;0.70;0.60;;;;;;;16.41;100.00;-5120.84;6277888;22;20403;-72
2021/09/18 07:45:08;;;;;;;1.97;1.80;;;;;;;16.66;100.00;-3369.81;6277587;22;20372;-72
2021/09/18 07:47:36;;;;;;;0.70;0.60;;;;;;;16.84;100.00;-1705.81;6277147;22;20374;-72
2021/09/18 07:50:05;;;;;;;0.80;0.80;;;;;;;17.06;100.00;-253.63;6250452;22;20399;-72
2021/09/18 07:52:35;;;;;;;0.90;0.80;;;;;;;17.20;100.00;1798.38;6277402;22;20923;-71
2021/09/18 07:55:02;;;;;;;0.80;0.70;;;;;;;17.32;100.00;3640.63;6250684;22;20889;-72
2021/09/18 07:57:50;;;;;;;0.80;0.80;;;;;;;17.30;100.00;4972.06;6277878;22;20389;-72
2021/09/18 08:00:17;;;;;;;1.10;0.93;;;;;;;17.56;100.00;7391.66;6250804;22;20403;-72
2021/09/18 08:02:44;;;;;;;1.10;1.00;;;;;;;17.95;100.00;10564.97;6276920;22;20379;-72
2021/09/18 08:05:12;;;;;;;0.87;0.87;;;;;;;18.43;100.00;12915.03;6249660;22;20387;-72
2021/09/18 08:07:40;;;;;;;0.80;0.80;;;;;;;18.56;100.00;14926.25;6277208;22;20427;-73
2021/09/18 08:10:13;;;;;;;0.70;0.60;;;;;;;19.00;100.00;17293.75;6250880;22;20421;-72
2021/09/18 08:12:40;;;;;;;0.80;0.70;;;;;;;19.48;100.00;19601.13;6277477;22;20433;-72
2021/09/18 08:15:08;;;;;;;0.70;0.70;;;;;;;19.58;100.00;20134.97;6250795;22;20870;-72
2021/09/18 08:17:35;;;;;;;0.80;0.70;;;;;;;19.59;100.00;18643.31;6277302;22;20807;-72
2021/09/18 08:20:04;;;;;;;1.93;1.43;;;;;;;20.11;100.00;16694.28;6249670;22;20371;-73
2021/09/18 08:22:31;;;;;;;0.70;0.60;;;;;;;20.61;100.00;10171.13;6249426;22;20401;-73
2021/09/18 08:24:59;;;;;;;0.70;0.70;;;;;;;21.04;100.00;-5357.09;6249448;22;20375;-72
2021/09/18 08:27:28;;;;;;;0.80;0.80;;;;;;;21.28;100.00;-21257.75;6277812;22;20362;-71
2021/09/18 08:29:55;;;;;;;0.70;0.70;;;;;;;21.42;100.00;-21261.69;6277479;22;20361;-72
2021/09/18 08:32:22;;;;;;;0.80;0.73;;;;;;;21.26;100.00;-21257.19;6250240;22;20391;-71
2021/09/18 08:34:49;;;;;;;0.70;0.60;;;;;;;21.52;100.00;-21264.16;6276536;22;20391;-72
2021/09/18 08:37:17;;;;;;;0.97;0.80;;;;;;;21.53;100.00;-21264.44;6250312;22;20779;-72
2021/09/18 08:39:44;;;;;;;1.00;0.70;;;;;;;21.45;100.00;-21262.38;6249629;22;20391;-73
2021/09/18 08:42:14;;;;;;;0.70;0.60;;;;;;;21.52;100.00;-21264.28;6249978;22;20843;-73
2021/09/18 08:44:42;;;;;;;0.70;0.60;;;;;;;21.58;100.00;-21265.94;6250537;22;20375;-72
2021/09/18 08:47:11;;;;;;;0.70;0.60;;;;;;;21.82;100.00;-21272.34;6249789;22;20407;-72
2021/09/18 08:49:38;;;;;;;0.83;0.60;;;;;;;22.15;100.00;-21281.19;6249880;22;20383;-72
2021/09/18 08:52:06;;;;;;;0.70;0.60;;;;;;;22.11;100.00;-21279.97;6277305;22;20394;-73
2021/09/18 08:54:37;;;;;;;1.27;1.10;;;;;;;22.74;100.00;-21296.72;6250060;22;20462;-72
2021/09/18 08:57:05;;;;;;;0.90;0.73;;;;;;;22.73;100.00;-21296.59;6276727;22;20367;-72
2021/09/18 08:59:36;;;;;;;0.97;0.90;;;;;;;23.19;100.00;-21308.81;6248903;22;20735;-71
2021/09/18 09:02:08;;;;;;;0.80;0.60;;;;;;;23.67;100.00;-21321.47;6250177;22;20434;-72
2021/09/18 09:04:37;;;;;;;0.90;0.77;;;;;;;24.14;100.00;-21333.97;6276214;22;20360;-72
2021/09/18 09:07:08;;;;;;;1.13;1.00;;;;;;;24.01;100.00;-21330.72;6277330;22;20378;-72
2021/09/18 09:09:53;;;;;;;1.80;1.07;;;;;;;24.10;100.00;-21333.16;6276849;22;20460;-73
2021/09/18 09:12:42;;;;;;;0.97;0.83;;;;;;;24.67;100.00;-21348.22;6276987;22;20460;-72
2021/09/18 09:15:24;;;;;;;0.90;0.73;;;;;;;25.41;100.00;-21367.91;6249576;22;20403;-70
2021/09/18 09:17:52;;;;;;;1.00;0.87;;;;;;;24.59;100.00;-21346.06;6275484;22;20420;-70
2021/09/18 09:20:22;;;;;;;3.53;1.17;;;;;;;24.86;100.00;-21353.25;6248821;22;20425;-71
2021/09/18 09:22:50;;;;;;;3.10;1.33;;;;;;;25.35;100.00;-21366.28;6249898;22;20482;-70
2021/09/18 09:25:29;;;;;;;2.60;1.77;;;;;;;25.13;100.00;-21360.44;6250026;22;20372;-70
2021/09/18 09:27:58;;;;;;;1.40;1.30;;;;;;;25.27;100.00;-21364.09;6276926;22;20367;-70
2021/09/18 09:30:29;;;;;;;2.77;1.60;;;;;;;25.88;100.00;-21380.22;6249421;22;20426;-71
2021/09/18 09:33:04;;;;;;;1.90;1.63;;;;;;;25.13;100.00;-21360.44;6223667;22;20433;-70
2021/09/18 09:35:32;;;;;;;1.30;1.10;;;;;;;26.09;100.00;-21385.78;6274811;22;20371;-70
2021/09/18 09:37:59;;;;;;;1.13;0.87;;;;;;;26.08;100.00;-21385.50;6275944;22;20414;-70
2021/09/18 09:40:32;;;;;;;2.00;1.80;;;;;;;25.38;100.00;-21366.94;6275453;22;20387;-70
2021/09/18 09:43:01;;;;;;;1.93;1.20;;;;;;;25.28;100.00;-21364.38;6249381;22;20370;-70
2021/09/18 09:45:30;;;;;;;1.53;1.43;;;;;;;25.62;100.00;-21373.44;6275742;22;20843;-70
2021/09/18 09:48:05;;;;;;;1.53;0.93;;;;;;;25.89;100.00;-21380.63;6275822;22;20414;-70
2021/09/18 09:50:33;;;;;;;1.50;1.40;;;;;;;25.76;100.00;-21377.13;6275041;22;20377;-70
2021/09/18 09:53:00;;;;;;;1.97;1.77;;;;;;;26.40;100.00;-21394.19;6275704;22;20426;-71
2021/09/18 09:55:34;;;;;;;2.70;2.60;;;;;;;26.19;100.00;-21388.50;6276554;22;20375;-70
2021/09/18 09:58:03;;;;;;;0.87;0.73;;;;;;;27.68;100.00;-21428.13;6249875;22;20369;-70
2021/09/18 10:00:41;;;;;;;1.80;1.50;;;;;;;26.90;100.00;-21407.44;6276126;22;20398;-70
2021/09/18 10:03:09;;;;;;;1.40;1.30;;;;;;;27.25;100.00;-21416.63;6249911;22;20383;-70
2021/09/18 10:05:37;;;;;;;1.00;0.80;;;;;;;26.52;100.00;-21397.16;6223769;22;20409;-70
2021/09/18 10:08:04;;;;;;;0.90;0.87;;;;;;;25.92;100.00;-21381.47;6224225;22;20430;-71
2021/09/18 10:10:32;;;;;;;3.10;1.90;;;;;;;26.42;100.00;-21394.72;6276001;22;20391;-70
2021/09/18 10:12:59;;;;;;;1.50;1.07;;;;;;;26.68;100.00;-21401.50;6248765;22;20934;-70
2021/09/18 10:15:28;;;;;;;1.20;0.90;;;;;;;26.32;100.00;-21391.88;6249653;22;20426;-70
2021/09/18 10:18:00;;;;;;;2.03;1.57;;;;;;;26.85;100.00;-21405.94;6276669;22;20812;-70
2021/09/18 10:23:18;;;;;;;1.47;1.30;;;;;;;26.78;100.00;-21404.19;6249417;22;20485;-70
2021/09/18 10:25:49;;;;;;;1.17;0.93;;;;;;;26.85;100.00;-21406.09;6249404;22;20765;-70
2021/09/18 10:28:19;;;;;;;1.17;1.07;;;;;;;26.74;100.00;-21403.25;6248903;22;20505;-71
2021/09/18 10:30:48;;;;;;;2.00;1.53;;;;;;;27.54;100.00;-21424.34;6276000;22;20421;-71
2021/09/18 10:33:32;;;;;;;0.80;0.70;;;;;;;27.60;100.00;-21425.81;6276255;22;20481;-70
2021/09/18 10:36:03;;;;;;;1.60;1.00;;;;;;;28.00;100.00;-21436.38;6248853;22;20456;-70
2021/09/18 10:38:32;;;;;;;1.13;1.03;;;;;;;27.46;100.00;-21422.19;6276280;22;20494;-70
2021/09/18 10:41:06;;;;;;;1.37;1.27;;;;;;;27.06;100.00;-21411.50;6224768;22;20856;-70
2021/09/18 10:43:36;;;;;;;1.10;1.00;;;;;;;26.68;100.00;-21401.63;6224153;22;20395;-71
2021/09/18 10:46:05;;;;;;;1.87;1.00;;;;;;;27.20;100.00;-21415.28;6249590;22;20363;-70
2021/09/18 10:48:46;;;;;;;1.70;1.60;;;;;;;27.65;100.00;-21427.19;6277913;22;20383;-70
2021/09/18 10:51:38;;;;;;;0.70;0.50;;;;;;;27.67;100.00;-21427.84;6276781;22;20460;-70
2021/09/18 10:54:14;;;;;;;0.80;0.63;;;;;;;27.21;100.00;-21415.56;6278081;22;20426;-71
2021/09/18 10:57:06;;;;;;;1.20;0.80;;;;;;;27.71;100.00;-21428.78;6250778;22;20382;-70
2021/09/18 10:59:45;;;;;;;1.13;1.03;;;;;;;28.11;100.00;-21439.34;6226365;22;20412;-70
2021/09/18 11:02:54;;;;;;;0.83;0.83;;;;;;;27.55;100.00;-21424.59;6277876;22;20441;-70
2021/09/18 11:05:56;;;;;;;0.70;0.50;;;;;;;27.53;100.00;-21423.94;6277244;22;20371;-70
2021/09/18 11:08:35;;;;;;;1.40;1.10;;;;;;;28.37;100.00;-21446.34;6278629;22;20414;-70
2021/09/18 11:11:07;;;;;;;1.47;0.87;;;;;;;28.75;100.00;-21456.19;6250904;22;20859;-70
2021/09/18 11:13:36;;;;;;;0.77;0.57;;;;;;;28.37;100.00;-21446.22;6251360;22;20422;-70
2021/09/18 11:16:18;;;;;;;0.80;0.70;;;;;;;28.12;100.00;-21439.59;6277852;22;20387;-70
2021/09/18 11:18:51;;;;;;;0.80;0.70;;;;;;;28.10;100.00;-21439.06;6278019;22;20374;-71
2021/09/18 11:21:23;;;;;;;0.70;0.50;;;;;;;27.61;100.00;-21426.09;6250606;22;20437;-71
2021/09/18 11:23:52;;;;;;;1.43;1.33;;;;;;;28.72;100.00;-21455.53;6277711;22;20461;-70
2021/09/18 11:26:43;;;;;;;1.30;1.00;;;;;;;29.02;100.00;-21463.34;6277052;22;20371;-70
2021/09/18 11:29:28;;;;;;;0.70;0.60;;;;;;;28.73;100.00;-21455.78;6251947;22;20398;-70
2021/09/18 11:32:11;;;;;;;1.53;1.07;;;;;;;29.21;100.00;-21468.47;6278354;22;20376;-70
2021/09/18 11:34:47;;;;;;;0.80;0.70;;;;;;;28.87;100.00;-21459.56;6250784;22;20426;-70
2021/09/18 11:37:26;;;;;;;1.20;0.70;;;;;;;27.89;100.00;-21433.53;6250980;22;20403;-71
2021/09/18 11:40:00;;;;;;;1.00;0.90;;;;;;;27.91;100.00;-21434.19;6249874;22;20873;-70
2021/09/18 11:42:30;;;;;;;0.90;0.70;;;;;;;27.97;100.00;-21435.69;6277361;22;20840;-70